Albuquerque, NM (87101)

12:07 AM MDT on May 26, 2017 (GMT -0600)
Old Town | | Change Station
Active Advisory: Fire Weather Warning

Elev 4950 ft 35.09 °N, 106.67 °W | Updated 12 seconds ago

Partly Cloudy
Partly Cloudy
66.4 °F
Feels Like 66.4 °F
N
0.0
Wind Variable Wind from South

Today
High -- | Low -- °F
--% Chance of Precip.
Yesterday
High -- | Low -- °F
Precip. -- in
Pressure 29.69 in
Visibility 10.0 miles
Clouds Mostly Cloudy 25000 ft
Dew Point 15 °F
Humidity 13%
Rainfall 0.00 in
Snow Depth Not available.
5:55 AM 8:11 PM
New Moon, 0% visible
METAR KABQ 260552Z 24008KT 10SM BKN250 20/M13 A2994 RMK AO2 SLP052 T02001128 10289 20200 51028
Pressure 29.69 in
Visibility 10.0 miles
Clouds Mostly Cloudy 25000 ft
Dew Point 15 °F
Humidity 13%
Rainfall 0.00 in
Snow Depth Not available.
5:55 AM 8:11 PM
New Moon, 0% visible
METAR KABQ 260552Z 24008KT 10SM BKN250 20/M13 A2994 RMK AO2 SLP052 T02001128 10289 20200 51028

Get Your Daily Forecast Email!

Thanks for signing up!

Be on the lookout for a verification email in your inbox.

You'll start receiving severe weather alerts in your inbox..

×

10-Day Weather Forecast

Almanac

Astronomy

May. 26, 2017 Rise Set
Actual Time
Civil Twilight
Nautical Twilight
Astronomical Twilight
Moon
Length of Visible Light
Length of Day
Tomorrow will be .
, % of the Moon is Illuminated

Today's Extremes

State Highs State Lows

Community

WunderPhotos

Category 6

Welcome to Category 6. This is the collective home for Weather Underground's featured writeups by Dr. Jeff Masters (right), Bob Henson (left), Chris Burt, and other regular contributors.

Nearby

Air Quality

  Air Quality AQ Index Pollutant
Not available.

Snow Depth

Station Depth Elevation

Earthquake Activity

City Distance Mag. Time & Date
Minimum magnitude displayed is 2.5.

Coastal Water Temperatures

Place Temperature

Stations

Nearby Weather Stations

Station Location Temp. Windchill Dew Point Humidity Wind Precip. Elev Updated Type
                   

Watches & Warnings

Fire Weather Warning
Issued: 8:38 PM MDT May. 25, 2017 – National Weather Service

... Red flag warning remains in effect from 11 am to 9 PM MDT
Friday...

* area and timing... northwest and west Central Highlands, middle
Rio Grande Valley, Sandia, Manzano and Gallinas Mountains, and
east Central Plains. Critical conditions are temporarily abating
for now, but are expected to redevelop Friday late morning and
persist until Friday evening.

* 20 foot winds... southwest at 20 to 30 mph with gusts up to 40
mph on Friday.

* Relative humidity... dropping to 5 to 10 percent Friday afternoon.

* Impacts... any fires that develop will likely spread rapidly
and will be hard to control. Long range spotting and extreme
fire behavior will be possible. Outdoor burning should not be
done.

Precautionary/preparedness actions...

Please advise the appropriate officials or fire crews in the
field of this red flag warning.